Time;durP1;ratioP1;P1;durP2;ratioP2;P2;SDS_P1;SDS_P2;PMS_P1;PMS_P2;Temp;Humidity;BMP_temperature;BMP_pressure;BME280_temperature;BME280_humidity;BME280_pressure;Samples;Min_cycle;Max_cycle;Signal;HPM_P1;HPM_P2
2023/08/05 00:00:40;;;;;;;;;17.00;17.00;;;;;-143.47;100.00;63865.75;2095584;28;46675;-50
2023/08/05 00:01:40;;;;;;;;;35.00;31.00;;;;;-143.47;100.00;63865.75;2096099;28;46658;-50
2023/08/05 00:02:41;;;;;;;;;50.50;41.75;;;;;-143.47;100.00;63865.75;2104090;28;46519;-52
2023/08/05 00:03:41;;;;;;;;;77.00;73.75;;;;;-143.47;100.00;63865.75;2103143;28;46712;-50
2023/08/05 00:04:41;;;;;;;;;87.25;83.50;;;;;-143.47;100.00;63865.75;2095202;28;46437;-53
2023/08/05 00:05:42;;;;;;;;;71.00;61.00;;;;;-143.47;100.00;63865.75;2098973;28;46941;-52
2023/08/05 00:06:42;;;;;;;;;78.50;72.50;;;;;-143.47;100.00;63865.75;2098084;28;46319;-52
2023/08/05 00:07:43;;;;;;;;;137.00;130.00;;;;;-143.47;100.00;63865.75;2096465;28;46173;-53
2023/08/05 00:08:43;;;;;;;;;133.00;128.67;;;;;-143.47;100.00;63865.75;2099790;28;47197;-53
2023/08/05 00:09:44;;;;;;;;;126.67;120.00;;;;;-143.47;100.00;63865.75;2098841;28;47203;-51
2023/08/05 00:10:45;;;;;;;;;168.75;161.50;;;;;-143.47;100.00;63865.75;2098695;28;46407;-53
2023/08/05 00:11:46;;;;;;;;;164.25;155.00;;;;;-143.47;100.00;63865.75;2090930;28;46708;-53
2023/08/05 00:12:46;;;;;;;;;244.75;222.50;;;;;-143.47;100.00;63865.75;2087171;28;45984;-53
2023/08/05 00:13:46;;;;;;;;;279.50;253.25;;;;;-143.47;100.00;63865.75;2098493;28;46246;-52
2023/08/05 00:14:47;;;;;;;;;280.25;261.00;;;;;-143.47;100.00;63865.75;2097998;28;46347;-52
2023/08/05 00:15:49;;;;;;;;;152.00;140.50;;;;;-143.47;100.00;63865.75;2096674;28;46669;-52
2023/08/05 00:16:49;;;;;;;;;199.25;181.50;;;;;-143.47;100.00;63865.75;2090489;28;46448;-52
2023/08/05 00:17:50;;;;;;;;;217.25;202.50;;;;;-143.47;100.00;63865.75;2088541;28;46056;-50
2023/08/05 00:18:50;;;;;;;;;130.67;124.00;;;;;-143.47;100.00;63865.75;2097650;28;46199;-53
2023/08/05 00:19:50;;;;;;;;;192.50;176.50;;;;;-143.47;100.00;63865.75;2096529;28;46774;-55
2023/08/05 00:20:51;;;;;;;;;253.75;234.25;;;;;-143.47;100.00;63865.75;2104003;28;46392;-49
2023/08/05 00:21:51;;;;;;;;;226.25;208.50;;;;;-143.47;100.00;63865.75;2100230;28;46770;-48
2023/08/05 00:22:51;;;;;;;;;161.50;149.75;;;;;-143.47;100.00;63865.75;2096466;28;46274;-49
2023/08/05 00:23:52;;;;;;;;;131.67;125.00;;;;;-143.47;100.00;63865.75;2096219;28;46268;-50
2023/08/05 00:24:52;;;;;;;;;171.75;158.75;;;;;-143.47;100.00;63865.75;2095627;28;45895;-50
2023/08/05 00:25:52;;;;;;;;;256.00;238.75;;;;;-143.47;100.00;63865.75;2100419;28;46380;-52
2023/08/05 00:26:53;;;;;;;;;350.75;325.75;;;;;-143.47;100.00;63865.75;2089675;28;46337;-50
2023/08/05 00:27:53;;;;;;;;;286.25;261.75;;;;;-143.47;100.00;63865.75;2091077;28;46812;-50
2023/08/05 00:28:53;;;;;;;;;189.25;172.50;;;;;-143.47;100.00;63865.75;2096250;28;46128;-53
2023/08/05 00:29:54;;;;;;;;;151.75;140.50;;;;;-143.47;100.00;63865.75;2100568;28;45782;-50
2023/08/05 00:30:54;;;;;;;;;126.00;118.33;;;;;-143.47;100.00;63865.75;2094769;28;46239;-52
2023/08/05 00:31:54;;;;;;;;;90.25;86.50;;;;;-143.47;100.00;63865.75;2088398;28;46513;-51
2023/08/05 00:32:54;;;;;;;;;72.75;63.00;;;;;-143.47;100.00;63865.75;2100957;28;46268;-50
2023/08/05 00:33:55;;;;;;;;;51.25;42.00;;;;;-143.47;100.00;63865.75;2097658;28;46691;-50
2023/08/05 00:34:56;;;;;;;;;43.75;36.75;;;;;-143.47;100.00;63865.75;2097857;28;46576;-52
2023/08/05 00:35:56;;;;;;;;;34.80;29.80;;;;;-143.47;100.00;63865.75;2101593;28;46368;-52
2023/08/05 00:36:56;;;;;;;;;13.00;12.00;;;;;-143.47;100.00;63865.75;2097161;28;46203;-49
2023/08/05 00:37:57;;;;;;;;;17.25;16.75;;;;;-143.47;100.00;63865.75;2100869;28;46682;-50
2023/08/05 00:38:57;;;;;;;;;12.67;11.00;;;;;-143.47;100.00;63865.75;2100975;28;46779;-50
2023/08/05 00:39:58;;;;;;;;;12.00;12.00;;;;;-143.47;100.00;63865.75;2098433;27;46551;-51
2023/08/05 00:40:59;;;;;;;;;8.75;7.50;;;;;-143.47;100.00;63865.75;2100441;28;46032;-51
2023/08/05 00:41:59;;;;;;;;;8.00;8.00;;;;;-143.47;100.00;63865.75;2099271;28;46697;-50
2023/08/05 00:42:59;;;;;;;;;8.67;7.00;;;;;-143.47;100.00;63865.75;2099927;27;46149;-50
2023/08/05 00:44:00;;;;;;;;;8.33;8.33;;;;;-143.47;100.00;63865.75;2101608;28;46298;-49
2023/08/05 00:45:00;;;;;;;;;7.67;7.00;;;;;-143.47;100.00;63865.75;2097944;28;46853;-52
2023/08/05 00:46:01;;;;;;;;;10.33;9.67;;;;;-143.47;100.00;63865.75;2105732;28;46533;-50
2023/08/05 00:47:02;;;;;;;;;13.00;10.00;;;;;-143.47;100.00;63865.75;2106359;27;46865;-54
2023/08/05 00:48:02;;;;;;;;;8.00;8.00;;;;;-143.47;100.00;63865.75;2098174;27;46660;-52
2023/08/05 00:49:03;;;;;;;;;3.67;3.67;;;;;-143.47;100.00;63865.75;2101477;28;46609;-49
2023/08/05 00:50:04;;;;;;;;;7.67;7.67;;;;;-143.47;100.00;63865.75;2099225;28;46278;-51
2023/08/05 00:51:07;;;;;;;;;8.00;7.75;;;;;-143.47;100.00;63865.75;2098469;27;46703;-50
2023/08/05 00:52:08;;;;;;;;;5.75;5.75;;;;;-143.47;100.00;63865.75;2101273;28;46464;-50
2023/08/05 00:53:08;;;;;;;;;6.50;6.50;;;;;-143.47;100.00;63865.75;2098040;28;46475;-48
2023/08/05 00:54:09;;;;;;;;;6.33;6.33;;;;;-143.47;100.00;63865.75;2100595;28;46212;-49
2023/08/05 00:55:09;;;;;;;;;6.00;6.00;;;;;-143.47;100.00;63865.75;2097862;28;46296;-52
2023/08/05 00:56:10;;;;;;;;;5.00;5.00;;;;;-143.47;100.00;63865.75;2097943;28;46659;-51
2023/08/05 00:57:12;;;;;;;;;8.00;7.33;;;;;-143.47;100.00;63865.75;2102361;27;46467;-52
2023/08/05 00:58:12;;;;;;;;;7.25;7.25;;;;;-143.47;100.00;63865.75;2100853;28;46458;-52
2023/08/05 00:59:13;;;;;;;;;7.33;7.33;;;;;-143.47;100.00;63865.75;2104496;28;46583;-50
2023/08/05 01:00:13;;;;;;;;;6.67;6.67;;;;;-143.47;100.00;63865.75;2093973;28;46572;-50
2023/08/05 01:01:13;;;;;;;;;4.00;4.00;;;;;-143.47;100.00;63865.75;2098684;28;46275;-50
2023/08/05 01:02:14;;;;;;;;;5.00;5.00;;;;;-143.47;100.00;63865.75;2102169;28;46359;-52
2023/08/05 01:03:15;;;;;;;;;8.67;7.67;;;;;-143.47;100.00;63865.75;2098201;27;46709;-53
2023/08/05 01:04:15;;;;;;;;;8.25;8.25;;;;;-143.47;100.00;63865.75;2097623;28;46647;-51
2023/08/05 01:05:17;;;;;;;;;7.67;7.67;;;;;-143.47;100.00;63865.75;2099797;28;46299;-52
2023/08/05 01:06:21;;;;;;;;;7.00;7.00;;;;;-143.47;100.00;63865.75;2100216;27;46218;-53
2023/08/05 01:07:22;;;;;;;;;5.50;5.50;;;;;-143.47;100.00;63865.75;2103739;28;46860;-51
2023/08/05 01:08:23;;;;;;;;;8.00;8.00;;;;;-143.47;100.00;63865.75;2106023;28;46935;-53
2023/08/05 01:09:23;;;;;;;;;6.33;6.00;;;;;-143.47;100.00;63865.75;2101294;27;46592;-51
2023/08/05 01:10:23;;;;;;;;;4.00;3.33;;;;;-143.47;100.00;63865.75;2102091;28;45338;-54
2023/08/05 01:11:24;;;;;;;;;4.00;4.00;;;;;-143.47;100.00;63865.75;2098022;27;46569;-48
2023/08/05 01:12:24;;;;;;;;;7.33;5.67;;;;;-143.47;100.00;63865.75;2097518;28;46508;-53
2023/08/05 01:13:25;;;;;;;;;5.00;5.00;;;;;-143.47;100.00;63865.75;2099518;28;46301;-49
2023/08/05 01:14:25;;;;;;;;;5.33;5.00;;;;;-143.47;100.00;63865.75;2099135;28;45936;-53
2023/08/05 01:15:25;;;;;;;;;7.00;6.00;;;;;-143.47;100.00;63865.75;2097471;28;46654;-52
2023/08/05 01:16:26;;;;;;;;;6.00;6.00;;;;;-143.47;100.00;63865.75;2098387;28;46624;-54
2023/08/05 01:17:26;;;;;;;;;5.33;5.33;;;;;-143.47;100.00;63865.75;2097776;28;46717;-54
2023/08/05 01:18:28;;;;;;;;;7.33;7.00;;;;;-143.47;100.00;63865.75;2093878;28;46618;-55
2023/08/05 01:19:31;;;;;;;;;7.25;7.00;;;;;-143.47;100.00;63865.75;2096045;28;46936;-54
2023/08/05 01:20:43;;;;;;;;;6.00;6.00;;;;;-143.47;100.00;63865.75;2095385;28;46343;-51
2023/08/05 01:22:16;;;;;;;;;5.00;5.00;;;;;-143.47;100.00;63865.75;2098368;28;46315;-53
2023/08/05 01:23:35;;;;;;;;;4.25;4.25;;;;;-143.47;100.00;63865.75;2079416;28;46876;-53
2023/08/05 01:24:48;;;;;;;;;4.50;4.50;;;;;-143.47;100.00;63865.75;2079976;28;46364;-53
2023/08/05 01:25:48;;;;;;;;;8.00;6.25;;;;;-143.47;100.00;63865.75;2080002;28;46725;-53
2023/08/05 01:26:49;;;;;;;;;6.00;6.00;;;;;-143.47;100.00;63865.75;2080141;28;46680;-52
2023/08/05 01:27:52;;;;;;;;;7.00;7.00;;;;;-143.47;100.00;63865.75;2080314;28;46473;-53
2023/08/05 01:28:52;;;;;;;;;4.25;3.00;;;;;-143.47;100.00;63865.75;2079805;28;46772;-52
2023/08/05 01:29:53;;;;;;;;;8.67;8.00;;;;;-143.47;100.00;63865.75;2079632;28;46242;-53
2023/08/05 01:30:55;;;;;;;;;6.00;6.00;;;;;-143.47;100.00;63865.75;2078673;28;45586;-51
2023/08/05 01:31:56;;;;;;;;;0.00;0.00;;;;;-143.47;100.00;63865.75;2075132;28;46808;-52
2023/08/05 01:33:00;;;;;;;;;6.00;5.75;;;;;-143.47;100.00;63865.75;2071554;28;46796;-54
2023/08/05 01:34:01;;;;;;;;;6.75;5.75;;;;;-143.47;100.00;63865.75;2080218;28;46764;-49
2023/08/05 01:35:01;;;;;;;;;5.25;5.25;;;;;-143.47;100.00;63865.75;2075837;28;46495;-50
2023/08/05 01:36:02;;;;;;;;;5.00;5.00;;;;;-143.47;100.00;63865.75;2047406;28;46613;-50
2023/08/05 01:37:02;;;;;;;;;5.33;5.33;;;;;-143.47;100.00;63865.75;2054941;28;46321;-53
2023/08/05 01:38:03;;;;;;;;;6.00;6.00;;;;;-143.47;100.00;63865.75;2077259;28;46826;-53
2023/08/05 01:39:03;;;;;;;;;6.00;6.00;;;;;-143.47;100.00;63865.75;2072071;28;46638;-54
2023/08/05 01:40:05;;;;;;;;;7.33;6.33;;;;;-143.47;100.00;63865.75;2077497;28;46259;-50
2023/08/05 01:41:05;;;;;;;;;6.00;6.00;;;;;-143.47;100.00;63865.75;2079490;28;46550;-49
2023/08/05 01:42:05;;;;;;;;;6.67;6.67;;;;;-143.47;100.00;63865.75;2080040;28;46410;-49
2023/08/05 01:43:07;;;;;;;;;4.33;4.33;;;;;-143.47;100.00;63865.75;2058164;28;46249;-48
2023/08/05 01:44:07;;;;;;;;;6.25;6.00;;;;;-143.47;100.00;63865.75;2054421;28;46319;-50
2023/08/05 01:45:08;;;;;;;;;6.33;5.33;;;;;-143.47;100.00;63865.75;2071604;28;46130;-52
2023/08/05 01:46:08;;;;;;;;;6.00;5.67;;;;;-143.47;100.00;63865.75;2071418;28;46360;-50
2023/08/05 01:47:09;;;;;;;;;7.00;6.00;;;;;-143.47;100.00;63865.75;2078655;28;46750;-48
2023/08/05 01:48:09;;;;;;;;;5.33;5.33;;;;;-143.47;100.00;63865.75;2074596;28;46877;-48
2023/08/05 01:49:09;;;;;;;;;6.00;6.00;;;;;-143.47;100.00;63865.75;2078932;28;46433;-51
2023/08/05 01:50:10;;;;;;;;;5.33;5.33;;;;;-143.47;100.00;63865.75;2072065;28;46554;-48
2023/08/05 01:51:10;;;;;;;;;7.67;6.00;;;;;-143.47;100.00;63865.75;2076016;28;46160;-50
2023/08/05 01:52:11;;;;;;;;;6.00;4.67;;;;;-143.47;100.00;63865.75;2071284;28;46308;-49
2023/08/05 01:53:11;;;;;;;;;5.00;5.00;;;;;-143.47;100.00;63865.75;2063506;28;46330;-49
2023/08/05 01:54:11;;;;;;;;;5.00;5.00;;;;;-143.47;100.00;63865.75;2063602;28;45718;-52
2023/08/05 01:55:11;;;;;;;;;6.00;6.00;;;;;-143.47;100.00;63865.75;2071699;28;46157;-49
2023/08/05 01:56:12;;;;;;;;;5.67;5.67;;;;;-143.47;100.00;63865.75;2074235;28;46224;-48
2023/08/05 01:57:12;;;;;;;;;6.33;6.00;;;;;-143.47;100.00;63865.75;2074513;28;46171;-50
2023/08/05 01:58:12;;;;;;;;;5.33;5.33;;;;;-143.47;100.00;63865.75;2071121;28;46430;-52
2023/08/05 01:59:13;;;;;;;;;6.67;6.67;;;;;-143.47;100.00;63865.75;2071902;28;46737;-48
2023/08/05 02:00:13;;;;;;;;;6.00;6.00;;;;;-143.47;100.00;63865.75;2079422;28;46294;-49
2023/08/05 02:01:14;;;;;;;;;4.00;4.00;;;;;-143.47;100.00;63865.75;2095050;28;46733;-50
2023/08/05 02:02:14;;;;;;;;;6.00;6.00;;;;;-143.47;100.00;63865.75;2100590;28;46515;-52
2023/08/05 02:03:14;;;;;;;;;7.00;5.33;;;;;-143.47;100.00;63865.75;2098524;28;46449;-51
2023/08/05 02:04:15;;;;;;;;;5.00;5.00;;;;;-143.47;100.00;63865.75;2097266;28;46354;-49
2023/08/05 02:05:15;;;;;;;;;6.33;6.33;;;;;-143.47;100.00;63865.75;2100243;28;46340;-50
2023/08/05 02:06:15;;;;;;;;;5.67;5.67;;;;;-143.47;100.00;63865.75;2097434;28;46743;-50
2023/08/05 02:07:16;;;;;;;;;5.00;5.00;;;;;-143.47;100.00;63865.75;2100890;28;46310;-51
2023/08/05 02:08:16;;;;;;;;;3.67;3.67;;;;;-143.47;100.00;63865.75;2099242;28;45690;-50
2023/08/05 02:09:16;;;;;;;;;5.67;5.67;;;;;-143.47;100.00;63865.75;2098954;27;46254;-50
2023/08/05 02:10:17;;;;;;;;;4.00;4.00;;;;;-143.47;100.00;63865.75;2097457;28;46649;-50
2023/08/05 02:11:17;;;;;;;;;5.00;4.33;;;;;-143.47;100.00;63865.75;2097283;28;46310;-53
2023/08/05 02:12:17;;;;;;;;;4.00;4.00;;;;;-143.47;100.00;63865.75;2100396;27;46168;-49
2023/08/05 02:13:18;;;;;;;;;6.67;5.67;;;;;-143.47;100.00;63865.75;2097236;28;46615;-52
2023/08/05 02:14:18;;;;;;;;;4.33;4.33;;;;;-143.47;100.00;63865.75;2113544;27;46156;-52
2023/08/05 02:15:18;;;;;;;;;3.00;3.00;;;;;-143.47;100.00;63865.75;2113088;27;46546;-54
2023/08/05 02:16:19;;;;;;;;;4.67;4.67;;;;;-143.47;100.00;63865.75;2098775;28;47093;-53
2023/08/05 02:17:20;;;;;;;;;4.00;4.00;;;;;-143.47;100.00;63865.75;2099173;27;46626;-51
2023/08/05 02:18:20;;;;;;;;;4.00;4.00;;;;;-143.47;100.00;63865.75;2100511;28;46554;-53
2023/08/05 02:19:21;;;;;;;;;5.00;5.00;;;;;-143.47;100.00;63865.75;2096735;28;46041;-53
2023/08/05 02:20:21;;;;;;;;;5.00;5.00;;;;;-143.47;100.00;63865.75;2101723;28;46186;-52
2023/08/05 02:21:21;;;;;;;;;3.67;3.67;;;;;-143.47;100.00;63865.75;2105478;27;45738;-53
2023/08/05 02:22:21;;;;;;;;;3.67;3.67;;;;;-143.47;100.00;63865.75;2097253;27;46462;-49
2023/08/05 02:23:22;;;;;;;;;5.00;5.00;;;;;-143.47;100.00;63865.75;2100134;28;46175;-51
2023/08/05 02:24:22;;;;;;;;;4.67;4.67;;;;;-143.47;100.00;63865.75;2099104;28;46409;-53
2023/08/05 02:25:23;;;;;;;;;3.33;3.33;;;;;-143.47;100.00;63865.75;2099038;27;46266;-50
2023/08/05 02:26:23;;;;;;;;;4.00;4.00;;;;;-143.47;100.00;63865.75;2097331;28;46328;-50
2023/08/05 02:27:23;;;;;;;;;5.33;5.00;;;;;-143.47;100.00;63865.75;2097224;28;46347;-50
2023/08/05 02:28:24;;;;;;;;;4.33;4.33;;;;;-143.47;100.00;63865.75;2099377;28;46601;-51
2023/08/05 02:29:24;;;;;;;;;3.00;3.00;;;;;-143.47;100.00;63865.75;2098628;28;46466;-47
2023/08/05 02:30:24;;;;;;;;;4.00;4.00;;;;;-143.47;100.00;63865.75;2097299;28;46790;-51
2023/08/05 02:31:25;;;;;;;;;3.00;3.00;;;;;-143.47;100.00;63865.75;2102355;28;46175;-52
2023/08/05 02:32:25;;;;;;;;;3.33;3.33;;;;;-143.47;100.00;63865.75;2105535;27;46275;-49
2023/08/05 02:33:25;;;;;;;;;5.33;4.33;;;;;-143.47;100.00;63865.75;2098677;27;46463;-49
2023/08/05 02:34:26;;;;;;;;;4.33;4.33;;;;;-143.47;100.00;63865.75;2096703;28;46796;-52
2023/08/05 02:35:26;;;;;;;;;4.00;4.00;;;;;-143.47;100.00;63865.75;2097219;28;46842;-50
2023/08/05 02:36:26;;;;;;;;;2.33;2.33;;;;;-143.47;100.00;63865.75;2103083;28;46349;-52
2023/08/05 02:37:27;;;;;;;;;5.00;5.00;;;;;-143.47;100.00;63865.75;2105270;27;46383;-52
2023/08/05 02:38:27;;;;;;;;;3.33;3.33;;;;;-143.47;100.00;63865.75;2097391;28;46303;-53
2023/08/05 02:39:27;;;;;;;;;5.67;5.00;;;;;-143.47;100.00;63865.75;2097686;28;46298;-53
2023/08/05 02:40:32;;;;;;;;;4.00;4.00;;;;;-143.47;100.00;63865.75;2096972;28;46345;-51
2023/08/05 02:41:32;;;;;;;;;4.00;4.00;;;;;-143.47;100.00;63865.75;2098686;28;46740;-51
2023/08/05 02:42:32;;;;;;;;;4.00;3.67;;;;;-143.47;100.00;63865.75;2097689;28;46520;-48
2023/08/05 02:43:33;;;;;;;;;4.00;3.67;;;;;-143.47;100.00;63865.75;2097505;28;46739;-48
2023/08/05 02:44:33;;;;;;;;;4.33;4.00;;;;;-143.47;100.00;63865.75;2098179;28;46108;-49
2023/08/05 02:45:33;;;;;;;;;3.00;2.00;;;;;-143.47;100.00;63865.75;2098255;28;46543;-52
2023/08/05 02:46:34;;;;;;;;;3.00;3.00;;;;;-143.47;100.00;63865.75;2096781;28;46265;-53
2023/08/05 02:47:34;;;;;;;;;3.00;3.00;;;;;-143.47;100.00;63865.75;2088382;28;46867;-51
2023/08/05 02:48:34;;;;;;;;;3.00;3.00;;;;;-143.47;100.00;63865.75;2087245;28;46328;-53
2023/08/05 02:49:35;;;;;;;;;3.00;3.00;;;;;-143.47;100.00;63865.75;2101547;28;46951;-51
2023/08/05 02:50:35;;;;;;;;;3.67;3.67;;;;;-143.47;100.00;63865.75;2103393;27;46574;-48
2023/08/05 02:51:36;;;;;;;;;4.67;4.67;;;;;-143.47;100.00;63865.75;2105574;28;46495;-54
2023/08/05 02:52:37;;;;;;;;;3.00;3.00;;;;;-143.47;100.00;63865.75;2102940;27;46134;-50
2023/08/05 02:53:37;;;;;;;;;4.00;4.00;;;;;-143.47;100.00;63865.75;2104927;28;46171;-52
2023/08/05 02:54:37;;;;;;;;;4.33;3.00;;;;;-143.47;100.00;63865.75;2104629;28;46457;-51
2023/08/05 02:55:37;;;;;;;;;3.00;3.00;;;;;-143.47;100.00;63865.75;2103806;28;47128;-51
2023/08/05 02:56:38;;;;;;;;;3.00;3.00;;;;;-143.47;100.00;63865.75;2100705;27;46538;-52
2023/08/05 02:57:38;;;;;;;;;5.67;5.67;;;;;-143.47;100.00;63865.75;2098715;28;46924;-51
2023/08/05 02:58:39;;;;;;;;;2.00;2.00;;;;;-143.47;100.00;63865.75;2098599;28;46503;-53
2023/08/05 02:59:39;;;;;;;;;4.67;4.33;;;;;-143.47;100.00;63865.75;2100470;27;46159;-52
2023/08/05 03:00:40;;;;;;;;;2.33;2.00;;;;;-143.47;100.00;63865.75;2096969;28;46462;-49
2023/08/05 03:01:40;;;;;;;;;5.33;5.00;;;;;-143.47;100.00;63865.75;2096686;28;46400;-48
2023/08/05 03:02:41;;;;;;;;;3.00;3.00;;;;;-143.47;100.00;63865.75;2101462;28;46101;-51
2023/08/05 03:03:41;;;;;;;;;4.00;4.00;;;;;-143.47;100.00;63865.75;2099764;28;46156;-53
2023/08/05 03:04:41;;;;;;;;;3.00;3.00;;;;;-143.47;100.00;63865.75;2099413;28;46726;-48
2023/08/05 03:05:42;;;;;;;;;3.00;3.00;;;;;-143.47;100.00;63865.75;2103010;28;46796;-50
2023/08/05 03:06:42;;;;;;;;;4.33;4.33;;;;;-143.47;100.00;63865.75;2098115;28;46025;-50
2023/08/05 03:07:42;;;;;;;;;6.00;5.00;;;;;-143.47;100.00;63865.75;2102432;27;46631;-50
2023/08/05 03:08:43;;;;;;;;;4.67;4.67;;;;;-143.47;100.00;63865.75;2096035;28;46921;-48
2023/08/05 03:09:43;;;;;;;;;3.00;2.33;;;;;-143.47;100.00;63865.75;2097059;28;46491;-51
2023/08/05 03:10:43;;;;;;;;;4.00;4.00;;;;;-143.47;100.00;63865.75;2096627;28;46615;-53
2023/08/05 03:11:44;;;;;;;;;5.00;5.00;;;;;-143.47;100.00;63865.75;2098836;28;46693;-49
2023/08/05 03:12:44;;;;;;;;;4.00;4.00;;;;;-143.47;100.00;63865.75;2101175;27;46266;-52
2023/08/05 03:13:44;;;;;;;;;3.00;3.00;;;;;-143.47;100.00;63865.75;2102159;28;46422;-51
2023/08/05 03:14:44;;;;;;;;;3.33;3.33;;;;;-143.47;100.00;63865.75;2097991;27;46732;-52
2023/08/05 03:15:45;;;;;;;;;5.00;4.67;;;;;-143.47;100.00;63865.75;2102640;27;46719;-52
2023/08/05 03:16:45;;;;;;;;;5.00;4.00;;;;;-143.47;100.00;63865.75;2100253;28;45117;-53
2023/08/05 03:17:45;;;;;;;;;3.00;3.00;;;;;-143.47;100.00;63865.75;2099479;27;46819;-54
2023/08/05 03:18:46;;;;;;;;;4.00;4.00;;;;;-143.47;100.00;63865.75;2101127;28;45520;-53
2023/08/05 03:19:51;;;;;;;;;3.00;3.00;;;;;-143.47;100.00;63865.75;2095374;28;46469;-54
2023/08/05 03:20:51;;;;;;;;;4.50;4.50;;;;;-143.47;100.00;63865.75;2100158;28;46466;-53
2023/08/05 03:21:52;;;;;;;;;2.33;2.33;;;;;-143.47;100.00;63865.75;2097129;28;46365;-53
2023/08/05 03:22:53;;;;;;;;;2.00;2.00;;;;;-143.47;100.00;63865.75;2095945;28;46288;-51
2023/08/05 03:23:53;;;;;;;;;0.75;0.75;;;;;-143.47;100.00;63865.75;2092153;28;46706;-52
2023/08/05 03:24:53;;;;;;;;;2.33;2.33;;;;;-143.47;100.00;63865.75;2096337;28;46311;-54
2023/08/05 03:25:54;;;;;;;;;2.33;2.33;;;;;-143.47;100.00;63865.75;2104008;27;46612;-50
2023/08/05 03:26:54;;;;;;;;;3.00;3.00;;;;;-143.47;100.00;63865.75;2112817;27;46192;-53
2023/08/05 03:27:55;;;;;;;;;3.00;3.00;;;;;-143.47;100.00;63865.75;2096821;27;46908;-51
2023/08/05 03:28:55;;;;;;;;;1.00;1.00;;;;;-143.47;100.00;63865.75;2096980;28;46196;-50
2023/08/05 03:29:55;;;;;;;;;5.33;5.33;;;;;-143.47;100.00;63865.75;2096319;28;46642;-48
2023/08/05 03:30:56;;;;;;;;;4.00;4.00;;;;;-143.47;100.00;63865.75;2087947;28;46282;-49
2023/08/05 03:31:57;;;;;;;;;5.33;5.00;;;;;-143.47;100.00;63865.75;2096063;28;46752;-52
2023/08/05 03:32:57;;;;;;;;;3.00;3.00;;;;;-143.47;100.00;63865.75;2096850;28;45583;-52
2023/08/05 03:33:58;;;;;;;;;2.67;2.67;;;;;-143.47;100.00;63865.75;2096878;28;46300;-52
2023/08/05 03:34:58;;;;;;;;;4.50;4.25;;;;;-143.47;100.00;63865.75;2096547;28;46314;-53
2023/08/05 03:35:59;;;;;;;;;3.67;3.67;;;;;-143.47;100.00;63865.75;2096858;28;46620;-51
2023/08/05 03:36:59;;;;;;;;;6.67;5.67;;;;;-143.47;100.00;63865.75;2096668;28;46499;-52
2023/08/05 03:37:59;;;;;;;;;2.67;2.67;;;;;-143.47;100.00;63865.75;2096172;28;45950;-53
2023/08/05 03:39:00;;;;;;;;;4.33;4.00;;;;;-143.47;100.00;63865.75;2096547;28;45687;-49
2023/08/05 03:40:00;;;;;;;;;4.33;4.33;;;;;-143.47;100.00;63865.75;2096746;28;45021;-53
2023/08/05 03:41:04;;;;;;;;;3.33;3.33;;;;;-143.47;100.00;63865.75;2096809;28;46693;-53
2023/08/05 03:42:05;;;;;;;;;3.25;2.75;;;;;-143.47;100.00;63865.75;2097187;28;46648;-51
2023/08/05 03:43:05;;;;;;;;;3.67;3.67;;;;;-143.47;100.00;63865.75;2092053;28;46645;-53
2023/08/05 03:44:05;;;;;;;;;3.67;3.67;;;;;-143.47;100.00;63865.75;2088714;28;46814;-54
2023/08/05 03:45:06;;;;;;;;;3.67;3.67;;;;;-143.47;100.00;63865.75;2088401;28;46468;-54
2023/08/05 03:46:07;;;;;;;;;3.50;3.00;;;;;-143.47;100.00;63865.75;2088535;28;46512;-50
2023/08/05 03:47:07;;;;;;;;;5.67;5.67;;;;;-143.47;100.00;63865.75;2088334;28;46761;-50
2023/08/05 03:48:07;;;;;;;;;4.00;4.00;;;;;-143.47;100.00;63865.75;2088582;28;46238;-50
2023/08/05 03:49:08;;;;;;;;;6.33;4.67;;;;;-143.47;100.00;63865.75;2092388;28;46197;-50
2023/08/05 03:50:08;;;;;;;;;5.00;5.00;;;;;-143.47;100.00;63865.75;2096718;28;46778;-48
2023/08/05 03:51:09;;;;;;;;;3.33;3.00;;;;;-143.47;100.00;63865.75;2096209;28;46625;-49
2023/08/05 03:52:09;;;;;;;;;5.33;5.00;;;;;-143.47;100.00;63865.75;2096664;28;46605;-50
2023/08/05 03:53:09;;;;;;;;;3.67;3.67;;;;;-143.47;100.00;63865.75;2096977;28;46071;-50
2023/08/05 03:54:09;;;;;;;;;3.00;3.00;;;;;-143.47;100.00;63865.75;2096855;28;46261;-50
2023/08/05 03:55:10;;;;;;;;;3.33;3.33;;;;;-143.47;100.00;63865.75;2096711;28;46471;-50
2023/08/05 03:56:10;;;;;;;;;3.00;3.00;;;;;-143.47;100.00;63865.75;2095335;28;46244;-49
2023/08/05 03:57:11;;;;;;;;;3.33;3.33;;;;;-143.47;100.00;63865.75;2091556;28;46112;-50
2023/08/05 03:58:11;;;;;;;;;2.33;2.33;;;;;-143.47;100.00;63865.75;2096658;28;46684;-52
2023/08/05 03:59:12;;;;;;;;;5.00;5.00;;;;;-143.47;100.00;63865.75;2096236;28;46432;-47
2023/08/05 04:00:12;;;;;;;;;2.00;2.00;;;;;-143.47;100.00;63865.75;2096520;28;46342;-53
2023/08/05 04:01:16;;;;;;;;;3.00;3.00;;;;;-143.47;100.00;63865.75;2095719;28;46726;-49
2023/08/05 04:02:17;;;;;;;;;3.25;3.25;;;;;-143.47;100.00;63865.75;2100242;28;46562;-52
2023/08/05 04:03:18;;;;;;;;;4.00;4.00;;;;;-143.47;100.00;63865.75;2097164;28;46372;-50
2023/08/05 04:04:18;;;;;;;;;3.67;3.67;;;;;-143.47;100.00;63865.75;2099484;27;46138;-50
2023/08/05 04:05:18;;;;;;;;;5.33;4.33;;;;;-143.47;100.00;63865.75;2100140;28;46481;-50
2023/08/05 04:06:20;;;;;;;;;2.67;2.33;;;;;-143.47;100.00;63865.75;2096292;28;46681;-47
2023/08/05 04:07:22;;;;;;;;;2.75;2.75;;;;;-143.47;100.00;63865.75;2096377;28;47097;-50
2023/08/05 04:08:23;;;;;;;;;4.25;3.75;;;;;-143.47;100.00;63865.75;2099300;28;46856;-51
2023/08/05 04:09:24;;;;;;;;;2.67;2.67;;;;;-143.47;100.00;63865.75;2097268;27;45816;-48
2023/08/05 04:10:24;;;;;;;;;4.50;4.50;;;;;-143.47;100.00;63865.75;2100147;28;46863;-54
2023/08/05 04:11:26;;;;;;;;;3.33;3.33;;;;;-143.47;100.00;63865.75;2097925;28;46565;-52
2023/08/05 04:12:26;;;;;;;;;3.00;3.00;;;;;-143.47;100.00;63865.75;2098047;28;46575;-52
2023/08/05 04:13:28;;;;;;;;;3.67;3.67;;;;;-143.47;100.00;63865.75;2099771;28;46684;-54
2023/08/05 04:14:29;;;;;;;;;4.00;4.00;;;;;-143.47;100.00;63865.75;2096703;28;46856;-52
2023/08/05 04:15:33;;;;;;;;;3.25;3.25;;;;;-143.47;100.00;63865.75;2097191;28;46822;-54
2023/08/05 04:16:34;;;;;;;;;2.25;2.25;;;;;-143.47;100.00;63865.75;2104146;28;46690;-53
2023/08/05 04:17:34;;;;;;;;;3.75;3.75;;;;;-143.47;100.00;63865.75;2097704;28;46811;-53
2023/08/05 04:18:36;;;;;;;;;2.67;2.67;;;;;-143.47;100.00;63865.75;2101487;27;46527;-54
2023/08/05 04:19:37;;;;;;;;;2.25;2.25;;;;;-143.47;100.00;63865.75;2100710;28;46782;-50
2023/08/05 04:20:38;;;;;;;;;2.33;2.33;;;;;-143.47;100.00;63865.75;2103756;28;46193;-53
2023/08/05 04:21:46;;;;;;;;;2.75;2.75;;;;;-143.47;100.00;63865.75;2102823;27;46708;-50
2023/08/05 04:22:49;;;;;;;;;3.00;3.00;;;;;-143.47;100.00;63865.75;2102839;28;46397;-52
2023/08/05 04:23:49;;;;;;;;;2.00;2.00;;;;;-143.47;100.00;63865.75;2098203;28;46455;-53
2023/08/05 04:24:50;;;;;;;;;2.00;2.00;;;;;-143.47;100.00;63865.75;2095916;28;46800;-53
2023/08/05 04:25:51;;;;;;;;;2.00;2.00;;;;;-143.47;100.00;63865.75;2096748;28;46375;-51
2023/08/05 04:26:52;;;;;;;;;4.50;3.75;;;;;-143.47;100.00;63865.75;2096730;28;46307;-52
2023/08/05 04:27:52;;;;;;;;;4.50;3.75;;;;;-143.47;100.00;63865.75;2104707;27;46980;-49
2023/08/05 04:28:53;;;;;;;;;2.67;2.67;;;;;-143.47;100.00;63865.75;2100387;27;46648;-52
2023/08/05 04:29:53;;;;;;;;;2.00;2.00;;;;;-143.47;100.00;63865.75;2102180;27;46285;-53
2023/08/05 04:30:53;;;;;;;;;3.00;3.00;;;;;-143.47;100.00;63865.75;2103109;28;46694;-50
2023/08/05 04:31:54;;;;;;;;;2.00;2.00;;;;;-143.47;100.00;63865.75;2098456;27;46187;-49
2023/08/05 04:32:54;;;;;;;;;1.67;1.67;;;;;-143.47;100.00;63865.75;2095727;28;46834;-50
2023/08/05 04:33:54;;;;;;;;;3.00;3.00;;;;;-143.47;100.00;63865.75;2105032;27;46215;-49
2023/08/05 04:34:55;;;;;;;;;6.33;6.00;;;;;-143.47;100.00;63865.75;2100644;27;46069;-52